createdAt,value
2019-05-01T00:00:57.061Z,43.28
2019-05-01T00:04:02.682Z,43.38
2019-05-01T00:07:10.942Z,47.30
2019-05-01T00:10:14.728Z,48.95
2019-05-01T00:13:18.443Z,59.40
2019-05-01T00:16:22.122Z,52.30
2019-05-01T00:19:25.912Z,50.43
2019-05-01T00:22:29.555Z,46.53
2019-05-01T00:25:33.120Z,46.40
2019-05-01T00:28:36.666Z,48.05
2019-05-01T00:31:40.521Z,48.23
2019-05-01T00:34:44.165Z,47.30
2019-05-01T00:37:47.844Z,46.98
2019-05-01T00:40:51.455Z,48.85
2019-05-01T00:43:55.080Z,48.25
2019-05-01T00:46:58.704Z,50.33
2019-05-01T00:50:02.348Z,48.33
2019-05-01T00:53:06.074Z,47.43
2019-05-01T00:56:14.167Z,47.50
2019-05-01T00:59:22.229Z,48.55
2019-05-01T01:02:27.623Z,48.00
2019-05-01T01:05:31.311Z,47.98
2019-05-01T01:08:35.121Z,47.08
2019-05-01T01:11:38.708Z,47.75
2019-05-01T01:14:44.235Z,47.23
2019-05-01T01:21:47.985Z,46.75
2019-05-01T01:32:11.740Z,46.50
2019-05-01T01:35:15.441Z,48.75
2019-05-01T01:38:19.042Z,49.08
2019-05-01T01:41:23.189Z,46.90
2019-05-01T01:44:40.890Z,49.03
2019-05-01T01:48:02.643Z,48.58
2019-05-01T01:51:06.532Z,50.78
2019-05-01T01:54:10.343Z,47.70
2019-05-01T01:57:14.082Z,45.83
2019-05-01T02:00:19.474Z,45.50
2019-05-01T02:03:24.715Z,46.65
2019-05-01T02:06:28.423Z,47.80
2019-05-01T02:09:32.048Z,45.73
2019-05-01T02:12:37.124Z,47.67
2019-05-01T02:15:40.678Z,45.85
2019-05-01T02:18:44.234Z,45.52
2019-05-01T02:21:50.655Z,44.45
2019-05-01T02:24:54.190Z,43.35
2019-05-01T02:28:15.290Z,43.35
2019-05-01T02:31:28.255Z,43.83
2019-05-01T02:34:29.521Z,42.35
2019-05-01T02:37:34.113Z,42.00
2019-05-01T02:40:49.535Z,40.12
2019-05-01T02:43:56.074Z,38.33
2019-05-01T02:47:02.748Z,37.35
2019-05-01T02:50:09.353Z,35.95
2019-05-01T02:53:13.741Z,35.40
2019-05-01T02:56:21.272Z,36.10
2019-05-01T02:59:27.773Z,34.92
2019-05-01T03:02:32.011Z,35.70
2019-05-01T03:05:35.613Z,35.50
2019-05-01T03:08:40.849Z,34.78
2019-05-01T03:11:50.077Z,35.08
2019-05-01T03:14:58.439Z,34.92
2019-05-01T03:18:11.011Z,33.83
2019-05-01T03:24:29.245Z,31.23
2019-05-01T03:27:32.904Z,31.40
2019-05-01T03:30:36.627Z,31.60
2019-05-01T03:33:40.584Z,31.52
2019-05-01T03:36:44.222Z,32.85
2019-05-01T03:39:48.070Z,32.08
2019-05-01T03:42:52.152Z,30.77
2019-05-01T03:45:56.603Z,31.48
2019-05-01T03:49:04.165Z,29.70
2019-05-01T03:52:09.713Z,31.70
2019-05-01T03:55:16.394Z,30.17
2019-05-01T03:58:21.958Z,32.30
2019-05-01T04:01:44.048Z,31.05
2019-05-01T04:04:47.774Z,30.50
2019-05-01T04:07:53.059Z,30.72
2019-05-01T04:10:56.829Z,30.37
2019-05-01T04:14:00.605Z,30.43
2019-05-01T04:17:18.067Z,31.25
2019-05-01T04:20:21.697Z,30.27
2019-05-01T04:23:25.452Z,30.32
2019-05-01T04:26:29.245Z,32.38
2019-05-01T04:29:34.909Z,31.27
2019-05-01T04:32:52.130Z,33.70
2019-05-01T04:35:48.809Z,34.18
2019-05-01T04:38:52.766Z,33.28
2019-05-01T04:41:56.746Z,34.23
2019-05-01T04:45:00.356Z,34.53
2019-05-01T04:48:04.230Z,33.65
2019-05-01T04:51:08.043Z,31.87
2019-05-01T04:54:12.312Z,33.98
2019-05-01T04:57:15.839Z,32.73
2019-05-01T05:00:19.929Z,32.33
2019-05-01T05:03:25.483Z,33.42
2019-05-01T05:06:29.520Z,33.67
2019-05-01T05:09:40.579Z,34.23
2019-05-01T05:13:04.427Z,33.28
2019-05-01T05:16:12.648Z,33.73
2019-05-01T05:19:17.135Z,33.45
2019-05-01T05:22:21.031Z,32.40
2019-05-01T05:25:24.781Z,33.65
2019-05-01T05:28:31.294Z,33.38
2019-05-01T05:31:36.081Z,32.23
2019-05-01T05:34:46.212Z,33.48
2019-05-01T05:37:56.417Z,33.45
2019-05-01T05:41:01.345Z,33.83
2019-05-01T05:44:05.142Z,34.55
2019-05-01T05:47:09.666Z,34.45
2019-05-01T05:50:15.088Z,34.48
2019-05-01T05:53:23.292Z,33.50
2019-05-01T05:56:30.342Z,33.33
2019-05-01T05:59:37.376Z,34.50
2019-05-01T06:02:50.718Z,32.42
2019-05-01T06:06:14.990Z,33.38
2019-05-01T06:09:22.882Z,33.58
2019-05-01T06:12:37.206Z,32.15
2019-05-01T06:15:57.188Z,31.35
2019-05-01T06:19:05.392Z,30.20
2019-05-01T06:22:29.580Z,29.67
2019-05-01T06:25:37.746Z,28.57
2019-05-01T06:28:41.559Z,29.10
2019-05-01T06:31:46.917Z,28.25
2019-05-01T06:34:51.712Z,29.52
2019-05-01T06:38:03.713Z,28.05
2019-05-01T06:41:07.414Z,29.20
2019-05-01T06:44:13.493Z,27.00
2019-05-01T06:47:21.910Z,28.10
2019-05-01T06:50:27.180Z,27.32
2019-05-01T06:53:36.068Z,27.48
2019-05-01T06:56:38.749Z,26.02
2019-05-01T06:59:43.321Z,27.13
2019-05-01T07:02:51.404Z,25.68
2019-05-01T07:05:56.312Z,25.57
2019-05-01T07:09:00.737Z,26.40
2019-05-01T07:12:09.460Z,27.65
2019-05-01T07:15:13.576Z,28.15
2019-05-01T07:18:18.843Z,27.25
2019-05-01T07:21:27.044Z,26.73
2019-05-01T07:24:29.103Z,26.25
2019-05-01T07:27:38.141Z,28.17
2019-05-01T07:30:43.471Z,27.27
2019-05-01T07:33:52.362Z,26.80
2019-05-01T07:36:56.188Z,26.93
2019-05-01T07:40:01.369Z,26.80
2019-05-01T07:43:19.099Z,26.40
2019-05-01T07:46:43.177Z,25.70
2019-05-01T07:49:54.728Z,26.87
2019-05-01T07:52:58.590Z,28.57
2019-05-01T07:56:07.149Z,25.95
2019-05-01T07:59:08.213Z,25.72
2019-05-01T08:02:13.694Z,25.45
2019-05-01T08:05:17.248Z,27.02
2019-05-01T08:08:20.817Z,26.75
2019-05-01T08:11:24.460Z,26.48
2019-05-01T08:14:28.185Z,26.50
2019-05-01T08:17:37.815Z,28.60
2019-05-01T08:20:45.805Z,29.48
2019-05-01T08:23:49.559Z,30.37
2019-05-01T08:26:55.075Z,33.10
2019-05-01T08:30:00.346Z,32.50
2019-05-01T08:33:09.781Z,33.10
2019-05-01T08:36:13.999Z,34.27
2019-05-01T08:39:17.552Z,34.13
2019-05-01T08:42:21.201Z,30.97
2019-05-01T08:45:27.938Z,31.65
2019-05-01T08:48:36.032Z,30.02
2019-05-01T08:51:42.331Z,30.00
2019-05-01T08:54:45.961Z,31.73
2019-05-01T08:57:50.365Z,31.68
2019-05-01T09:00:54.381Z,31.62
2019-05-01T09:03:58.153Z,32.78
2019-05-01T09:07:01.882Z,32.40
2019-05-01T09:10:09.128Z,31.37
2019-05-01T09:13:12.541Z,31.68
2019-05-01T09:16:19.064Z,33.05
2019-05-01T09:19:21.739Z,31.87
2019-05-01T09:22:25.449Z,32.55
2019-05-01T09:25:30.916Z,33.15
2019-05-01T09:28:39.847Z,32.63
2019-05-01T09:31:43.083Z,32.67
2019-05-01T09:34:48.372Z,29.40
2019-05-01T09:37:51.999Z,29.18
2019-05-01T09:40:55.708Z,27.67
2019-05-01T09:43:59.380Z,27.55
2019-05-01T09:47:03.168Z,26.60
2019-05-01T09:50:09.077Z,24.65
2019-05-01T09:53:34.321Z,25.60
2019-05-01T09:56:38.450Z,22.30
2019-05-01T09:59:42.317Z,20.72
2019-05-01T10:02:46.038Z,21.42
2019-05-01T10:05:49.650Z,19.95
2019-05-01T10:08:53.491Z,19.27
2019-05-01T10:11:57.423Z,16.90
2019-05-01T10:15:01.046Z,17.90
2019-05-01T10:18:04.744Z,18.85
2019-05-01T10:21:08.347Z,16.93
2019-05-01T10:24:11.989Z,17.42
2019-05-01T10:27:17.387Z,15.58
2019-05-01T10:30:25.570Z,16.70
2019-05-01T10:33:32.654Z,16.45
2019-05-01T10:36:41.157Z,13.98
2019-05-01T10:39:44.861Z,15.93
2019-05-01T10:42:48.523Z,17.60
2019-05-01T10:45:52.381Z,17.60
2019-05-01T10:48:57.452Z,17.27
2019-05-01T10:52:13.559Z,17.30
2019-05-01T10:55:07.996Z,17.48
2019-05-01T10:58:12.680Z,18.80
2019-05-01T11:01:21.260Z,16.95
2019-05-01T11:04:24.991Z,18.00
2019-05-01T11:07:28.930Z,17.80
2019-05-01T11:10:32.769Z,18.98
2019-05-01T11:13:36.386Z,24.02
2019-05-01T11:16:40.017Z,18.45
2019-05-01T11:19:43.711Z,19.95
2019-05-01T11:22:47.337Z,18.87
2019-05-01T11:25:51.021Z,17.75
2019-05-01T11:28:54.794Z,16.93
2019-05-01T11:32:02.509Z,15.38
2019-05-01T11:35:08.851Z,16.32
2019-05-01T11:38:14.114Z,15.13
2019-05-01T11:41:22.125Z,15.65
2019-05-01T11:44:25.804Z,15.72
2019-05-01T11:47:29.414Z,15.03
2019-05-01T11:50:33.037Z,14.93
2019-05-01T11:53:36.680Z,14.70
2019-05-01T11:56:40.331Z,15.95
2019-05-01T11:59:43.973Z,14.55
2019-05-01T12:02:47.596Z,13.93
2019-05-01T12:05:51.276Z,14.83
2019-05-01T12:08:54.884Z,14.50
2019-05-01T12:12:00.191Z,13.53
2019-05-01T12:15:06.185Z,14.30
2019-05-01T12:18:09.823Z,16.25
2019-05-01T12:21:16.477Z,14.98
2019-05-01T12:24:20.114Z,11.45
2019-05-01T12:27:23.875Z,10.78
2019-05-01T12:30:27.560Z,10.13
2019-05-01T12:33:31.165Z,11.80
2019-05-01T12:36:36.329Z,14.75
2019-05-01T12:39:40.414Z,15.18
2019-05-01T12:42:44.406Z,15.13
2019-05-01T12:45:49.719Z,13.62
2019-05-01T12:48:53.330Z,12.63
2019-05-01T12:52:10.235Z,13.05
2019-05-01T12:55:08.824Z,14.65
2019-05-01T12:58:12.469Z,12.82
2019-05-01T13:01:22.500Z,13.90
2019-05-01T13:04:26.331Z,12.63
2019-05-01T13:07:30.239Z,12.90
2019-05-01T13:10:34.112Z,12.47
2019-05-01T13:13:37.706Z,11.30
2019-05-01T13:16:41.465Z,11.97
2019-05-01T13:19:45.781Z,12.43
2019-05-01T13:22:53.657Z,11.70
2019-05-01T13:25:58.929Z,12.75
2019-05-01T13:29:04.234Z,12.60
2019-05-01T13:32:26.116Z,11.22
2019-05-01T13:35:30.641Z,10.55
2019-05-01T13:38:36.004Z,10.98
2019-05-01T13:41:42.437Z,11.30
2019-05-01T13:44:46.055Z,10.90
2019-05-01T13:47:49.773Z,11.38
2019-05-01T13:50:53.473Z,10.93
2019-05-01T13:53:58.752Z,11.63
2019-05-01T13:57:02.523Z,12.35
2019-05-01T14:00:09.912Z,12.68
2019-05-01T14:03:13.594Z,10.85
2019-05-01T14:06:18.623Z,13.40
2019-05-01T14:09:26.156Z,13.65
2019-05-01T14:12:31.263Z,11.75
2019-05-01T14:15:35.096Z,10.23
2019-05-01T14:18:38.950Z,10.68
2019-05-01T14:21:44.298Z,11.75
2019-05-01T14:24:49.644Z,10.35
2019-05-01T14:27:53.271Z,10.20
2019-05-01T14:30:57.021Z,9.25
2019-05-01T14:34:00.657Z,9.68
2019-05-01T14:37:04.360Z,9.83
2019-05-01T14:40:09.536Z,9.20
2019-05-01T14:43:13.157Z,8.90
2019-05-01T14:46:16.811Z,8.80
2019-05-01T14:49:20.441Z,9.38
2019-05-01T14:52:24.173Z,9.93
2019-05-01T14:55:27.771Z,9.85
2019-05-01T14:58:31.437Z,9.23
2019-05-01T15:01:35.063Z,9.68
2019-05-01T15:04:38.726Z,9.03
2019-05-01T15:07:43.972Z,10.03
2019-05-01T15:10:47.750Z,9.53
2019-05-01T15:13:57.175Z,9.98
2019-05-01T15:17:05.222Z,9.18
2019-05-01T15:20:09.420Z,8.90
2019-05-01T15:23:13.101Z,8.58
2019-05-01T15:26:16.880Z,9.55
2019-05-01T15:29:20.624Z,8.58
2019-05-01T15:32:24.236Z,9.60
2019-05-01T15:35:27.906Z,9.28
2019-05-01T15:38:31.659Z,8.18
2019-05-01T15:41:53.267Z,8.43
2019-05-01T15:44:56.868Z,8.07
2019-05-01T15:48:00.560Z,8.33
2019-05-01T15:51:04.446Z,8.35
2019-05-01T15:54:08.101Z,8.75
2019-05-01T15:57:11.766Z,8.15
2019-05-01T16:00:18.293Z,8.68
2019-05-01T16:03:22.028Z,8.10
2019-05-01T16:06:27.226Z,7.58
2019-05-01T16:09:30.928Z,8.10
2019-05-01T16:12:51.551Z,8.20
2019-05-01T16:15:55.190Z,8.05
2019-05-01T16:18:58.841Z,8.95
2019-05-01T16:22:02.606Z,7.50
2019-05-01T16:25:07.493Z,7.40
2019-05-01T16:28:11.307Z,8.18
2019-05-01T16:31:15.149Z,8.20
2019-05-01T16:34:18.817Z,8.65
2019-05-01T16:37:22.521Z,12.03
2019-05-01T16:40:27.881Z,7.97
2019-05-01T16:43:31.580Z,8.83
2019-05-01T16:46:39.033Z,7.90
2019-05-01T16:49:42.588Z,7.87
2019-05-01T16:52:46.300Z,9.05
2019-05-01T16:55:50.091Z,7.85
2019-05-01T16:58:53.730Z,8.30
2019-05-01T17:01:59.457Z,8.40
2019-05-01T17:05:22.802Z,8.38
2019-05-01T17:08:40.417Z,8.95
2019-05-01T17:11:44.226Z,9.28
2019-05-01T17:14:48.412Z,8.65
2019-05-01T17:17:52.156Z,9.30
2019-05-01T17:20:56.075Z,8.88
2019-05-01T17:23:59.799Z,8.98
2019-05-01T17:27:03.477Z,9.88
2019-05-01T17:30:09.614Z,10.55
2019-05-01T17:33:19.611Z,11.33
2019-05-01T17:36:19.078Z,11.68
2019-05-01T17:39:23.191Z,9.98
2019-05-01T17:42:26.827Z,9.30
2019-05-01T17:45:34.822Z,10.00
2019-05-01T17:48:37.796Z,10.32
2019-05-01T17:51:46.291Z,10.48
2019-05-01T17:54:49.802Z,10.45
2019-05-01T17:57:53.454Z,10.75
2019-05-01T18:00:58.722Z,10.20
2019-05-01T18:04:04.042Z,11.50
2019-05-01T18:07:07.712Z,11.80
2019-05-01T18:10:11.484Z,11.97
2019-05-01T18:13:15.259Z,11.40
2019-05-01T18:16:18.989Z,12.65
2019-05-01T18:19:22.811Z,13.53
2019-05-01T18:22:42.906Z,12.13
2019-05-01T18:25:48.189Z,12.33
2019-05-01T18:29:08.735Z,12.33
2019-05-01T18:32:13.975Z,13.20
2019-05-01T18:35:17.787Z,13.13
2019-05-01T18:38:25.745Z,13.20
2019-05-01T18:41:36.483Z,12.45
2019-05-01T18:44:42.599Z,13.30
2019-05-01T18:47:48.466Z,13.25
2019-05-01T18:50:54.651Z,12.55
2019-05-01T18:53:58.919Z,13.28
2019-05-01T18:57:02.699Z,13.20
2019-05-01T19:00:07.424Z,13.75
2019-05-01T19:03:11.214Z,14.45
2019-05-01T19:06:14.929Z,15.05
2019-05-01T19:09:29.388Z,14.35
2019-05-01T19:12:24.131Z,15.72
2019-05-01T19:15:28.112Z,15.72
2019-05-01T19:18:31.914Z,16.27
2019-05-01T19:21:36.146Z,16.77
2019-05-01T19:24:40.264Z,16.90
2019-05-01T19:27:44.111Z,18.07
2019-05-01T19:30:48.074Z,18.17
2019-05-01T19:33:51.675Z,19.52
2019-05-01T19:36:58.702Z,20.75
2019-05-01T19:40:02.482Z,21.75
2019-05-01T19:43:06.243Z,20.92
2019-05-01T19:46:10.079Z,20.70
2019-05-01T19:49:13.788Z,21.45
2019-05-01T19:52:17.299Z,21.52
2019-05-01T19:55:20.916Z,21.50
2019-05-01T19:58:24.602Z,21.55
2019-05-01T20:01:28.379Z,22.07
2019-05-01T20:04:31.932Z,22.60
2019-05-01T20:07:35.670Z,23.20
2019-05-01T20:10:39.459Z,23.60
2019-05-01T20:13:43.060Z,23.85
2019-05-01T20:16:56.664Z,23.30
2019-05-01T20:20:02.193Z,24.30
2019-05-01T20:23:10.394Z,25.77
2019-05-01T20:26:16.757Z,25.55
2019-05-01T20:29:20.789Z,25.48
2019-05-01T20:32:31.508Z,25.40
2019-05-01T20:35:35.741Z,27.95
2019-05-01T20:38:39.425Z,28.12
2019-05-01T20:41:52.049Z,28.30
2019-05-01T20:45:05.356Z,29.02
2019-05-01T20:48:11.778Z,30.10
2019-05-01T20:51:14.858Z,30.80
2019-05-01T20:54:18.721Z,30.23
2019-05-01T20:57:37.581Z,30.37
2019-05-01T21:00:48.229Z,33.25
2019-05-01T21:04:07.150Z,34.43
2019-05-01T21:07:15.574Z,31.62
2019-05-01T21:10:24.830Z,31.17
2019-05-01T21:13:27.348Z,30.72
2019-05-01T21:16:32.854Z,31.45
2019-05-01T21:19:37.769Z,30.80
2019-05-01T21:22:43.441Z,31.25
2019-05-01T21:25:48.456Z,28.95
2019-05-01T21:28:54.156Z,30.85
2019-05-01T21:31:57.965Z,30.50
2019-05-01T21:35:01.520Z,30.88
2019-05-01T21:38:05.211Z,32.45
2019-05-01T21:41:08.877Z,32.17
2019-05-01T21:44:13.167Z,30.50
2019-05-01T21:47:16.804Z,31.30
2019-05-01T21:50:22.815Z,32.45
2019-05-01T21:53:25.882Z,34.30
2019-05-01T21:56:29.440Z,32.85
2019-05-01T21:59:35.198Z,31.45
2019-05-01T22:02:41.550Z,32.15
2019-05-01T22:05:45.355Z,31.95
2019-05-01T22:08:48.946Z,33.88
2019-05-01T22:11:52.607Z,33.92
2019-05-01T22:15:06.043Z,33.98
2019-05-01T22:18:10.870Z,34.10
2019-05-01T22:21:18.829Z,33.40
2019-05-01T22:24:40.642Z,34.65
2019-05-01T22:27:48.666Z,34.05
2019-05-01T22:31:16.811Z,34.67
2019-05-01T22:34:22.908Z,34.40
2019-05-01T22:37:28.702Z,35.28
2019-05-01T22:40:48.405Z,34.13
2019-05-01T22:43:52.079Z,34.58
2019-05-01T22:46:56.267Z,32.67
2019-05-01T22:50:01.417Z,34.33
2019-05-01T22:53:07.926Z,33.78
2019-05-01T22:56:12.291Z,33.20
2019-05-01T22:59:15.837Z,32.65
2019-05-01T23:02:24.234Z,32.20
2019-05-01T23:05:29.485Z,32.20
2019-05-01T23:08:33.108Z,32.33
2019-05-01T23:11:38.375Z,32.65
2019-05-01T23:14:42.133Z,32.98
2019-05-01T23:17:47.151Z,35.08
2019-05-01T23:20:50.946Z,34.25
2019-05-01T23:23:56.871Z,33.70
2019-05-01T23:27:09.271Z,34.98
2019-05-01T23:30:14.906Z,35.28
2019-05-01T23:33:18.843Z,36.70
2019-05-01T23:36:23.980Z,35.90
2019-05-01T23:39:27.674Z,37.98
2019-05-01T23:42:37.451Z,36.35
2019-05-01T23:45:41.036Z,35.48
2019-05-01T23:48:46.452Z,37.03
2019-05-01T23:51:50.220Z,38.33
2019-05-01T23:54:53.772Z,37.10
2019-05-01T23:57:57.373Z,36.50
